Time;durP1;ratioP1;P1;durP2;ratioP2;P2;SDS_P1;SDS_P2;PMS_P1;PMS_P2;Temp;Humidity;BMP_temperature;BMP_pressure;BME280_temperature;BME280_humidity;BME280_pressure;Samples;Min_cycle;Max_cycle;Signal;HPM_P1;HPM_P2
2024/01/29 00:01:25;;;;;;;1.60;1.40;;;;;;;14.61;50.00;100009.50;105656;1259;74720;-37
2024/01/29 00:03:51;;;;;;;1.50;1.40;;;;;;;14.62;49.95;100008.36;105512;1260;65743;-36
2024/01/29 00:06:18;;;;;;;1.70;1.60;;;;;;;14.61;50.02;100008.95;105423;1254;72507;-37
2024/01/29 00:08:46;;;;;;;2.50;1.60;;;;;;;14.62;49.99;100008.70;105525;1260;61570;-37
2024/01/29 00:11:13;;;;;;;1.90;1.50;;;;;;;14.62;49.90;100011.38;105661;1254;61896;-35
2024/01/29 00:13:39;;;;;;;1.90;1.70;;;;;;;14.61;49.92;100012.90;105589;1259;74695;-37
2024/01/29 00:16:06;;;;;;;1.50;1.40;;;;;;;14.61;49.97;100014.67;105188;1254;66392;-36
2024/01/29 00:18:33;;;;;;;1.40;1.30;;;;;;;14.61;49.93;100015.65;105589;1258;72428;-36
2024/01/29 00:21:00;;;;;;;1.70;1.40;;;;;;;14.61;49.83;100019.74;105468;1267;61240;-36
2024/01/29 00:23:26;;;;;;;1.80;1.40;;;;;;;14.61;50.00;100020.13;105512;1254;61346;-36
2024/01/29 00:25:53;;;;;;;1.60;1.50;;;;;;;14.61;50.01;100023.68;105521;1258;75056;-37
2024/01/29 00:28:20;;;;;;;1.40;1.30;;;;;;;14.62;50.06;100024.82;105524;1260;66714;-36
2024/01/29 00:30:46;;;;;;;1.50;1.40;;;;;;;14.62;49.96;100024.98;105500;1260;72538;-36
2024/01/29 00:33:13;;;;;;;1.60;1.50;;;;;;;14.62;49.85;100017.43;105493;1258;61302;-36
2024/01/29 00:35:40;;;;;;;1.70;1.60;;;;;;;14.62;49.99;100019.97;105512;1258;61233;-36
2024/01/29 00:38:06;;;;;;;1.80;1.60;;;;;;;14.62;49.94;100016.95;105580;1259;75145;-36
2024/01/29 00:40:33;;;;;;;1.80;1.50;;;;;;;14.62;49.87;100016.73;105565;1260;65419;-36
2024/01/29 00:43:00;;;;;;;1.60;1.50;;;;;;;14.62;49.87;100014.80;105712;1258;72618;-36
2024/01/29 00:45:27;;;;;;;1.70;1.30;;;;;;;14.62;49.88;100013.02;105609;1258;61228;-36
2024/01/29 00:47:54;;;;;;;1.60;1.40;;;;;;;14.62;50.02;100010.59;105614;1258;61323;-36
2024/01/29 00:50:21;;;;;;;2.10;1.40;;;;;;;14.62;49.93;100010.64;105770;1260;74386;-37
2024/01/29 00:52:47;;;;;;;1.60;1.50;;;;;;;14.61;49.94;100009.44;105552;1258;65665;-37
2024/01/29 00:55:14;;;;;;;1.50;1.40;;;;;;;14.62;49.99;100010.48;105466;1259;73044;-37
2024/01/29 00:57:40;;;;;;;2.40;1.60;;;;;;;14.62;49.92;100009.39;105604;1255;61266;-37
2024/01/29 01:00:09;;;;;;;2.00;1.50;;;;;;;14.62;49.96;100013.88;105665;1255;61224;-36
2024/01/29 01:02:36;;;;;;;1.70;1.60;;;;;;;14.62;49.86;100015.66;106037;1258;74565;-36
2024/01/29 01:05:04;;;;;;;2.10;1.70;;;;;;;14.62;50.06;100014.36;105666;1260;66218;-35
2024/01/29 01:07:31;;;;;;;1.60;1.50;;;;;;;14.62;49.94;100017.60;105999;1258;72953;-35
2024/01/29 01:09:57;;;;;;;2.10;1.70;;;;;;;14.62;49.93;100021.85;105543;1259;61234;-35
2024/01/29 01:12:24;;;;;;;1.90;1.30;;;;;;;14.62;49.99;100023.52;105556;1260;61243;-36
2024/01/29 01:14:51;;;;;;;1.60;1.50;;;;;;;14.62;50.01;100024.23;105718;1257;74697;-36
2024/01/29 01:17:18;;;;;;;1.60;1.50;;;;;;;14.62;49.92;100029.78;105626;1257;66076;-35
2024/01/29 01:19:44;;;;;;;1.40;1.30;;;;;;;14.63;49.94;100027.89;105535;1260;71471;-35
2024/01/29 01:22:13;;;;;;;1.70;1.50;;;;;;;14.63;49.90;100025.14;105450;1267;61228;-37
2024/01/29 01:24:40;;;;;;;2.00;1.50;;;;;;;14.63;49.89;100024.34;105566;1259;61265;-35
2024/01/29 01:27:06;;;;;;;1.70;1.40;;;;;;;14.63;49.95;100028.98;105556;1259;74580;-35
2024/01/29 01:29:33;;;;;;;1.50;1.30;;;;;;;14.63;49.91;100035.02;105631;1260;65537;-37
2024/01/29 01:31:59;;;;;;;1.50;1.40;;;;;;;14.63;49.95;100035.88;105487;1258;72478;-36
2024/01/29 01:34:26;;;;;;;1.60;1.50;;;;;;;14.63;49.88;100034.90;105668;1258;61234;-36
2024/01/29 01:36:53;;;;;;;1.60;1.50;;;;;;;14.63;49.85;100025.73;105730;1256;61231;-36
2024/01/29 01:39:19;;;;;;;1.30;1.20;;;;;;;14.63;49.98;100020.73;105670;1264;74471;-36
2024/01/29 01:41:52;;;;;;;1.60;1.50;;;;;;;14.63;49.87;100026.54;105702;1267;66174;-34
2024/01/29 01:44:19;;;;;;;1.40;1.30;;;;;;;14.63;49.94;100029.52;105459;1259;73035;-36
2024/01/29 01:46:45;;;;;;;1.20;1.10;;;;;;;14.63;50.07;100038.08;105498;1259;61250;-36
2024/01/29 01:49:12;;;;;;;1.80;1.70;;;;;;;14.63;50.00;100046.02;105568;1255;61231;-35
2024/01/29 01:51:39;;;;;;;2.00;1.50;;;;;;;14.63;49.99;100051.95;105486;1255;74626;-35
2024/01/29 01:54:06;;;;;;;1.80;1.50;;;;;;;14.63;49.94;100056.05;105377;1261;65648;-35
2024/01/29 01:56:33;;;;;;;1.70;1.50;;;;;;;14.63;50.01;100060.40;105508;1258;72304;-35
2024/01/29 01:58:59;;;;;;;2.30;1.40;;;;;;;14.63;50.05;100055.34;105465;1266;61279;-36
2024/01/29 02:01:27;;;;;;;2.20;1.40;;;;;;;14.64;49.94;100045.85;105538;1259;61270;-35
2024/01/29 02:03:54;;;;;;;1.50;1.40;;;;;;;14.63;49.88;100043.96;105545;1258;74550;-36
2024/01/29 02:06:21;;;;;;;1.30;1.20;;;;;;;14.63;50.03;100049.52;105370;1269;65867;-35
2024/01/29 02:08:48;;;;;;;1.40;1.30;;;;;;;14.64;49.90;100053.46;105678;1260;72485;-35
2024/01/29 02:11:15;;;;;;;1.40;1.30;;;;;;;14.64;49.91;100058.70;105492;1260;61247;-35
2024/01/29 02:13:41;;;;;;;1.90;1.50;;;;;;;14.64;49.98;100059.56;105480;1260;61266;-35
2024/01/29 02:16:08;;;;;;;1.50;1.40;;;;;;;14.64;49.95;100054.11;105460;1258;74492;-35
2024/01/29 02:18:34;;;;;;;1.30;1.20;;;;;;;14.64;49.89;100057.89;105693;1259;66036;-35
2024/01/29 02:21:01;;;;;;;1.50;1.30;;;;;;;14.64;49.94;100051.73;105651;1258;72662;-35
2024/01/29 02:23:28;;;;;;;2.00;1.60;;;;;;;14.64;49.95;100054.12;105719;1264;61254;-35
2024/01/29 02:25:55;;;;;;;1.50;1.40;;;;;;;14.64;49.92;100052.01;105502;1256;61279;-35
2024/01/29 02:28:23;;;;;;;2.00;1.40;;;;;;;14.63;50.03;100054.91;105578;1260;74646;-35
2024/01/29 02:30:50;;;;;;;1.20;1.10;;;;;;;14.65;49.98;100061.34;105551;1267;66120;-37
2024/01/29 02:33:17;;;;;;;1.60;1.50;;;;;;;14.64;49.93;100060.96;105511;1258;72947;-37
2024/01/29 02:35:45;;;;;;;1.40;1.30;;;;;;;14.64;49.95;100068.35;105623;1260;61250;-37
2024/01/29 02:38:12;;;;;;;1.70;1.40;;;;;;;14.64;49.93;100077.41;105685;1259;61260;-37
2024/01/29 02:40:38;;;;;;;1.30;1.10;;;;;;;14.65;49.99;100078.98;105659;1254;62909;-35
2024/01/29 02:43:05;;;;;;;1.20;1.10;;;;;;;14.64;49.89;100077.48;105702;1255;61314;-36
2024/01/29 02:45:32;;;;;;;1.60;1.40;;;;;;;14.65;50.00;100072.72;105415;1254;72576;-36
2024/01/29 02:47:59;;;;;;;1.40;1.30;;;;;;;14.64;49.98;100067.27;105452;1267;61282;-36
2024/01/29 02:50:26;;;;;;;1.50;1.40;;;;;;;14.65;49.93;100075.14;105530;1255;61350;-35
2024/01/29 02:52:52;;;;;;;1.50;1.30;;;;;;;14.65;49.96;100080.44;105620;1259;75044;-35
2024/01/29 02:55:19;;;;;;;1.90;1.30;;;;;;;14.64;49.89;100075.48;105446;1257;66195;-35
2024/01/29 02:57:46;;;;;;;1.30;1.20;;;;;;;14.65;49.93;100068.73;105598;1260;61466;-35
2024/01/29 03:00:13;;;;;;;1.80;1.30;;;;;;;14.66;49.83;100071.44;105481;1258;61600;-35
2024/01/29 03:02:39;;;;;;;1.30;1.20;;;;;;;14.65;49.94;100070.13;105907;1257;61171;-35
2024/01/29 03:05:07;;;;;;;1.30;1.20;;;;;;;14.66;49.95;100065.34;105586;1257;74650;-35
2024/01/29 03:07:34;;;;;;;1.50;1.30;;;;;;;14.66;49.94;100070.25;105886;1259;66085;-36
2024/01/29 03:10:00;;;;;;;1.50;1.30;;;;;;;14.66;49.97;100069.06;105558;1254;72583;-36
2024/01/29 03:12:27;;;;;;;1.40;1.30;;;;;;;14.66;49.95;100068.02;106032;1258;61279;-36
2024/01/29 03:14:54;;;;;;;1.40;1.30;;;;;;;14.66;49.98;100067.48;105673;1259;61455;-36
2024/01/29 03:17:20;;;;;;;1.30;1.20;;;;;;;14.66;49.85;100069.92;105615;1260;74561;-36
2024/01/29 03:19:47;;;;;;;1.40;1.20;;;;;;;14.66;49.91;100072.40;105678;1257;64855;-36
2024/01/29 03:22:14;;;;;;;1.30;1.20;;;;;;;14.67;49.92;100072.14;105528;1257;72566;-35
2024/01/29 03:24:40;;;;;;;1.10;1.00;;;;;;;14.67;49.87;100074.89;105416;1257;61342;-36
2024/01/29 03:27:07;;;;;;;1.40;1.30;;;;;;;14.66;49.88;100073.11;105540;1254;61695;-37
2024/01/29 03:29:33;;;;;;;1.50;1.20;;;;;;;14.67;49.99;100068.64;105674;1258;74974;-37
2024/01/29 03:32:00;;;;;;;1.40;1.30;;;;;;;14.67;49.99;100068.74;105707;1257;66243;-37
2024/01/29 03:34:27;;;;;;;1.40;1.30;;;;;;;14.67;49.93;100064.80;105439;1254;72424;-37
2024/01/29 03:36:53;;;;;;;1.80;1.50;;;;;;;14.67;49.98;100067.45;105409;1260;62810;-36
2024/01/29 03:39:20;;;;;;;1.50;1.30;;;;;;;14.67;49.96;100066.92;105450;1254;61295;-38
2024/01/29 03:41:47;;;;;;;1.20;1.00;;;;;;;14.67;49.85;100062.70;105423;1254;74628;-37
2024/01/29 03:44:15;;;;;;;3.00;1.40;;;;;;;14.67;49.96;100064.70;105518;1254;65743;-36
2024/01/29 03:46:42;;;;;;;1.50;1.30;;;;;;;14.68;49.97;100065.34;105595;1254;72614;-36
2024/01/29 03:49:09;;;;;;;1.40;1.30;;;;;;;14.68;49.88;100062.59;105668;1258;61173;-36
2024/01/29 03:51:36;;;;;;;1.20;1.10;;;;;;;14.68;49.96;100058.88;105721;1255;61203;-37
2024/01/29 03:54:02;;;;;;;1.50;1.20;;;;;;;14.67;49.90;100056.77;105674;1258;73964;-37
2024/01/29 03:56:29;;;;;;;1.60;1.30;;;;;;;14.68;50.03;100061.56;105586;1258;64078;-37
2024/01/29 03:58:56;;;;;;;1.50;1.10;;;;;;;14.68;50.00;100057.91;105629;1255;72685;-37
2024/01/29 04:01:29;;;;;;;1.10;1.00;;;;;;;14.68;49.86;100060.80;105542;1257;61231;-37
2024/01/29 04:03:56;;;;;;;1.30;1.20;;;;;;;14.68;49.97;100058.39;105668;1254;61362;-35
2024/01/29 04:06:23;;;;;;;1.10;1.00;;;;;;;14.68;49.96;100056.55;105623;1254;74585;-36
2024/01/29 04:08:50;;;;;;;1.70;1.20;;;;;;;14.68;49.89;100055.10;105536;1254;65873;-37
2024/01/29 04:11:17;;;;;;;2.30;1.20;;;;;;;14.68;49.95;100049.80;105619;1254;72471;-36
2024/01/29 04:13:43;;;;;;;1.50;1.40;;;;;;;14.68;49.94;100044.46;105625;1258;61426;-36
2024/01/29 04:16:13;;;;;;;1.80;1.20;;;;;;;14.68;49.93;100036.64;105597;1257;61224;-36
2024/01/29 04:18:39;;;;;;;1.20;1.10;;;;;;;14.68;49.88;100037.17;105695;1260;74675;-36
2024/01/29 04:21:07;;;;;;;2.20;1.10;;;;;;;14.69;49.92;100039.39;105607;1258;65731;-36
2024/01/29 04:23:34;;;;;;;2.10;1.20;;;;;;;14.68;49.95;100039.39;105513;1254;72571;-36
2024/01/29 04:26:02;;;;;;;1.40;1.20;;;;;;;14.69;49.83;100037.98;105596;1257;61244;-36
2024/01/29 04:28:28;;;;;;;1.20;1.10;;;;;;;14.68;49.85;100040.04;105482;1254;61342;-35
2024/01/29 04:30:55;;;;;;;1.00;0.90;;;;;;;14.68;49.86;100038.64;105523;1260;74905;-36
2024/01/29 04:33:23;;;;;;;2.00;1.20;;;;;;;14.69;49.90;100037.08;105533;1258;66126;-35
2024/01/29 04:35:50;;;;;;;1.20;1.10;;;;;;;14.68;49.90;100038.05;105456;1254;72623;-36
2024/01/29 04:38:17;;;;;;;1.40;1.10;;;;;;;14.68;49.98;100034.43;105551;1258;61174;-35
2024/01/29 04:40:43;;;;;;;1.30;1.10;;;;;;;14.69;49.98;100039.40;105613;1254;61628;-35
2024/01/29 04:43:10;;;;;;;1.50;1.10;;;;;;;14.69;49.97;100039.72;105584;1254;74433;-35
2024/01/29 04:45:37;;;;;;;1.90;1.10;;;;;;;14.69;49.90;100036.65;105464;1257;66529;-36
2024/01/29 04:48:05;;;;;;;1.10;1.00;;;;;;;14.69;49.91;100037.03;105413;1254;72528;-36
2024/01/29 04:50:32;;;;;;;1.30;1.20;;;;;;;14.69;49.95;100037.34;105667;1260;61183;-35
2024/01/29 04:52:58;;;;;;;1.30;1.10;;;;;;;14.69;49.93;100031.80;105495;1260;61980;-35
2024/01/29 04:55:25;;;;;;;1.40;1.20;;;;;;;14.69;49.96;100031.46;105387;1254;61337;-35
2024/01/29 04:57:51;;;;;;;1.20;1.10;;;;;;;14.70;49.96;100032.59;105341;1260;63954;-35
2024/01/29 05:00:19;;;;;;;1.30;1.10;;;;;;;14.69;49.93;100036.05;105660;1260;73134;-36
2024/01/29 05:02:47;;;;;;;1.20;1.10;;;;;;;14.70;49.78;100041.88;109288;1254;59037;-36
2024/01/29 05:05:15;;;;;;;1.30;1.20;;;;;;;14.70;49.89;100037.38;109349;1254;58901;-36
2024/01/29 05:07:42;;;;;;;1.20;1.10;;;;;;;14.71;49.92;100036.05;109359;1254;74718;-36
2024/01/29 05:10:09;;;;;;;1.10;1.00;;;;;;;14.72;49.95;100032.70;107758;1254;66220;-37
2024/01/29 05:12:36;;;;;;;1.20;1.00;;;;;;;14.74;49.95;100034.02;105847;1254;72451;-37
2024/01/29 05:15:03;;;;;;;1.20;1.00;;;;;;;14.74;49.84;100035.10;105666;1258;61253;-37
2024/01/29 05:17:30;;;;;;;1.10;1.00;;;;;;;14.75;49.91;100032.88;106138;1254;61253;-37
2024/01/29 05:19:56;;;;;;;1.10;1.00;;;;;;;14.76;49.82;100033.14;105479;1254;74590;-37
2024/01/29 05:22:23;;;;;;;1.20;1.10;;;;;;;14.76;49.86;100033.74;105504;1259;66228;-37
2024/01/29 05:24:50;;;;;;;1.10;1.00;;;;;;;14.76;49.83;100038.98;105507;1254;72629;-36
2024/01/29 05:27:16;;;;;;;1.00;0.90;;;;;;;14.77;49.78;100041.61;105444;1259;61231;-36
2024/01/29 05:29:43;;;;;;;1.10;1.00;;;;;;;14.77;49.75;100045.17;105581;1254;61300;-37
2024/01/29 05:32:10;;;;;;;1.70;1.10;;;;;;;14.77;49.75;100052.36;105602;1254;74429;-37
2024/01/29 05:34:36;;;;;;;1.10;1.00;;;;;;;14.77;49.70;100048.79;105585;1257;66774;-38
2024/01/29 05:37:03;;;;;;;1.10;1.00;;;;;;;14.77;49.78;100052.56;105462;1254;72586;-37
2024/01/29 05:39:30;;;;;;;1.20;1.10;;;;;;;14.77;49.67;100054.02;105558;1257;61225;-37
2024/01/29 05:41:57;;;;;;;1.10;0.90;;;;;;;14.77;49.80;100059.41;105483;1257;61351;-36
2024/01/29 05:44:24;;;;;;;1.10;1.00;;;;;;;14.77;49.69;100064.81;105377;1254;73645;-36
2024/01/29 05:46:50;;;;;;;1.00;0.90;;;;;;;14.77;49.81;100062.27;105216;1266;66184;-36
2024/01/29 05:49:18;;;;;;;1.50;1.10;;;;;;;14.76;49.76;100060.55;105825;1254;72685;-36
2024/01/29 05:51:47;;;;;;;1.10;1.00;;;;;;;14.77;49.72;100066.98;105645;1261;61231;-36
2024/01/29 05:54:13;;;;;;;1.00;0.90;;;;;;;14.77;49.69;100069.66;105541;1254;61235;-36
2024/01/29 05:56:42;;;;;;;1.30;1.20;;;;;;;14.77;49.75;100068.43;105683;1260;74474;-35
2024/01/29 05:59:08;;;;;;;1.40;1.10;;;;;;;14.76;49.70;100069.58;105700;1260;66220;-35
2024/01/29 06:01:35;;;;;;;1.00;0.90;;;;;;;14.76;49.74;100073.51;108042;1256;72581;-37
2024/01/29 06:04:02;;;;;;;1.20;1.10;;;;;;;14.77;49.68;100073.45;105321;1257;61260;-36
2024/01/29 06:06:29;;;;;;;1.20;1.00;;;;;;;14.77;49.80;100077.71;106509;1254;61142;-36
2024/01/29 06:08:56;;;;;;;1.30;1.20;;;;;;;14.77;49.83;100082.73;105474;1254;74465;-36
2024/01/29 06:11:23;;;;;;;1.20;1.10;;;;;;;14.77;49.93;100085.96;105622;1254;64556;-35
2024/01/29 06:13:50;;;;;;;1.70;1.10;;;;;;;14.78;49.94;100086.35;105512;1254;72630;-35
2024/01/29 06:16:21;;;;;;;1.10;1.00;;;;;;;14.78;49.75;100090.92;105402;1258;61231;-37
2024/01/29 06:18:48;;;;;;;1.20;1.10;;;;;;;14.78;49.74;100097.67;105503;1254;61204;-36
2024/01/29 06:21:15;;;;;;;1.20;1.00;;;;;;;14.78;49.88;100102.70;105518;1254;74475;-35
2024/01/29 06:23:42;;;;;;;1.10;1.00;;;;;;;14.78;49.90;100110.57;105520;1258;65905;-37
2024/01/29 06:26:09;;;;;;;1.10;1.00;;;;;;;14.78;49.84;100111.59;105438;1254;72620;-36
2024/01/29 06:28:36;;;;;;;1.20;1.00;;;;;;;14.78;49.84;100113.98;105581;1254;61273;-35
2024/01/29 06:31:03;;;;;;;1.10;1.00;;;;;;;14.78;49.77;100111.70;105538;1254;61311;-36
2024/01/29 06:33:30;;;;;;;1.00;1.00;;;;;;;14.79;49.77;100110.67;105667;1254;74542;-35
2024/01/29 06:35:59;;;;;;;1.20;1.00;;;;;;;14.78;49.88;100109.34;105633;1259;66038;-35
2024/01/29 06:38:26;;;;;;;1.40;1.00;;;;;;;14.78;49.86;100115.38;105675;1258;72383;-35
2024/01/29 06:40:52;;;;;;;0.80;0.80;;;;;;;14.79;49.82;100116.30;105500;1259;61170;-35
2024/01/29 06:43:19;;;;;;;1.40;1.30;;;;;;;14.78;49.80;100117.91;105513;1254;61346;-36
2024/01/29 06:45:46;;;;;;;1.10;1.00;;;;;;;14.79;49.84;100124.17;105563;1258;74587;-36
2024/01/29 06:48:12;;;;;;;1.20;1.10;;;;;;;14.80;49.88;100122.17;105527;1257;65633;-35
2024/01/29 06:50:40;;;;;;;1.30;1.10;;;;;;;14.80;50.00;100117.27;105483;1254;72377;-35
2024/01/29 06:53:07;;;;;;;1.20;1.00;;;;;;;14.80;50.01;100122.23;105554;1257;61254;-35
2024/01/29 06:55:35;;;;;;;1.10;1.00;;;;;;;14.81;50.01;100127.31;105466;1254;61282;-35
2024/01/29 06:58:01;;;;;;;2.30;1.20;;;;;;;14.81;50.03;100122.14;105514;1257;74655;-36
2024/01/29 07:00:31;;;;;;;1.60;1.30;;;;;;;14.82;50.20;100116.23;105575;1254;65202;-36
2024/01/29 07:02:58;;;;;;;1.20;1.10;;;;;;;14.82;50.13;100125.04;105582;1254;72400;-36
2024/01/29 07:05:24;;;;;;;1.70;1.20;;;;;;;14.82;50.25;100121.80;105628;1257;61536;-34
2024/01/29 07:07:51;;;;;;;1.20;1.10;;;;;;;14.82;50.34;100122.35;105386;1258;61339;-35
2024/01/29 07:10:18;;;;;;;4.10;1.40;;;;;;;14.83;50.33;100124.66;105499;1257;74430;-36
2024/01/29 07:12:45;;;;;;;1.40;1.30;;;;;;;14.84;50.27;100125.89;105409;1259;66152;-35
2024/01/29 07:15:15;;;;;;;1.90;1.20;;;;;;;14.84;50.41;100121.80;105323;1258;73694;-36
2024/01/29 07:17:41;;;;;;;2.30;1.50;;;;;;;14.84;50.33;100123.31;105575;1258;61238;-35
2024/01/29 07:20:09;;;;;;;1.70;1.20;;;;;;;14.85;50.44;100122.14;105713;1254;61359;-37
2024/01/29 07:22:38;;;;;;;1.40;1.20;;;;;;;14.86;50.46;100129.20;105616;1255;72187;-36
2024/01/29 07:25:05;;;;;;;1.30;1.10;;;;;;;14.86;50.62;100133.19;105387;1259;66190;-36
2024/01/29 07:27:32;;;;;;;1.40;1.30;;;;;;;14.87;50.70;100126.61;105766;1259;72447;-36
2024/01/29 07:29:59;;;;;;;2.60;1.20;;;;;;;14.88;50.76;100128.23;105317;1258;61449;-36
2024/01/29 07:32:31;;;;;;;1.70;1.40;;;;;;;14.89;50.80;100134.83;105293;1256;61264;-36
2024/01/29 07:35:00;;;;;;;2.10;1.20;;;;;;;14.90;50.98;100142.11;105816;1259;74414;-35
2024/01/29 07:37:27;;;;;;;5.10;1.20;;;;;;;14.92;51.20;100145.61;105872;1254;66278;-35
2024/01/29 07:39:54;;;;;;;1.90;1.30;;;;;;;14.92;51.21;100145.30;105384;1254;72486;-35
2024/01/29 07:42:21;;;;;;;6.80;1.30;;;;;;;14.94;51.26;100148.59;106080;1254;61346;-35
2024/01/29 07:44:48;;;;;;;3.10;1.50;;;;;;;14.94;51.45;100148.05;105253;1254;61321;-36
2024/01/29 07:47:15;;;;;;;4.40;1.30;;;;;;;14.95;51.36;100150.70;106257;1257;74635;-35
2024/01/29 07:49:46;;;;;;;2.20;1.40;;;;;;;14.96;51.49;100158.96;105382;1257;66371;-35
2024/01/29 07:52:13;;;;;;;4.90;1.30;;;;;;;14.97;51.66;100162.57;105733;1254;72975;-36
2024/01/29 07:54:40;;;;;;;2.80;1.40;;;;;;;14.98;51.76;100165.27;105547;1258;61359;-36
2024/01/29 07:57:07;;;;;;;5.70;1.30;;;;;;;15.01;51.87;100162.15;105281;1257;61317;-39
2024/01/29 07:59:33;;;;;;;1.60;1.30;;;;;;;15.02;51.99;100157.95;105267;1254;61323;-37
2024/01/29 08:02:00;;;;;;;4.50;1.20;;;;;;;15.04;52.33;100159.19;105618;1255;66362;-37
2024/01/29 08:04:27;;;;;;;5.20;1.20;;;;;;;15.07;52.47;100158.17;104902;1260;74992;-38
2024/01/29 08:06:54;;;;;;;6.50;1.50;;;;;;;15.10;52.66;100162.27;105267;1260;61235;-38
2024/01/29 08:09:21;;;;;;;3.00;1.30;;;;;;;15.11;52.63;100158.55;105208;1256;61208;-37
2024/01/29 08:11:48;;;;;;;3.60;1.30;;;;;;;15.16;52.87;100167.58;105355;1256;75126;-37
2024/01/29 08:14:17;;;;;;;2.90;1.30;;;;;;;15.21;53.28;100167.91;105459;1253;66524;-38
2024/01/29 08:16:48;;;;;;;9.80;1.70;;;;;;;15.27;53.51;100166.55;106928;1254;72576;-38
2024/01/29 08:19:21;;;;;;;4.50;1.50;;;;;;;15.36;53.88;100170.26;105017;1259;61117;-36
2024/01/29 08:21:50;;;;;;;3.10;1.50;;;;;;;15.43;54.09;100171.52;105489;1256;61110;-37
2024/01/29 08:24:17;;;;;;;3.40;1.50;;;;;;;15.52;54.45;100166.67;105141;1257;75804;-38
2024/01/29 08:26:44;;;;;;;4.70;1.60;;;;;;;15.60;54.77;100166.24;105120;1256;66079;-37
2024/01/29 08:29:10;;;;;;;3.80;1.50;;;;;;;15.70;54.74;100168.45;105495;1257;73792;-37
2024/01/29 08:31:38;;;;;;;2.70;1.40;;;;;;;15.78;54.60;100166.39;105173;1259;61231;-37
2024/01/29 08:34:04;;;;;;;2.50;1.60;;;;;;;15.85;54.50;100164.92;105408;1254;61232;-36
2024/01/29 08:36:31;;;;;;;2.40;1.40;;;;;;;15.91;54.32;100166.38;105173;1256;74382;-37
2024/01/29 08:38:58;;;;;;;5.50;1.30;;;;;;;15.97;54.11;100170.84;105089;1258;66111;-37
2024/01/29 08:41:25;;;;;;;3.60;1.40;;;;;;;16.02;54.08;100171.43;105408;1254;71975;-37
2024/01/29 08:43:51;;;;;;;6.60;1.60;;;;;;;16.06;54.12;100170.51;105083;1259;61350;-37
2024/01/29 08:46:18;;;;;;;2.50;1.40;;;;;;;16.10;54.06;100173.09;105264;1254;62061;-37
2024/01/29 08:48:45;;;;;;;4.70;1.20;;;;;;;16.14;54.05;100176.55;105280;1254;74447;-36
2024/01/29 08:51:11;;;;;;;6.90;1.60;;;;;;;16.17;54.05;100178.16;105569;1258;67263;-37
2024/01/29 08:53:38;;;;;;;2.30;1.40;;;;;;;16.20;53.89;100178.09;105642;1254;72317;-36
2024/01/29 08:56:07;;;;;;;2.20;1.20;;;;;;;16.23;53.83;100180.52;105235;1257;61369;-39
2024/01/29 08:58:35;;;;;;;4.70;1.40;;;;;;;16.25;53.82;100179.55;105259;1254;61229;-37
2024/01/29 09:01:02;;;;;;;4.90;1.50;;;;;;;16.28;53.71;100183.11;105394;1258;75069;-40
2024/01/29 09:03:31;;;;;;;4.00;1.20;;;;;;;16.31;53.77;100186.08;105410;1254;66732;-38
2024/01/29 09:05:58;;;;;;;8.00;1.30;;;;;;;16.34;53.77;100191.81;105155;1257;73727;-36
2024/01/29 09:08:27;;;;;;;2.90;1.60;;;;;;;16.36;53.83;100190.08;105227;1254;61445;-36
2024/01/29 09:10:54;;;;;;;3.50;1.40;;;;;;;16.40;53.92;100192.06;105170;1254;61161;-36
2024/01/29 09:13:21;;;;;;;3.50;1.30;;;;;;;16.42;53.82;100197.35;105435;1257;75550;-38
2024/01/29 09:15:48;;;;;;;4.50;1.40;;;;;;;16.46;53.88;100198.59;105154;1257;63979;-39
2024/01/29 09:18:14;;;;;;;2.40;1.30;;;;;;;16.48;53.96;100201.02;105350;1256;71949;-37
2024/01/29 09:20:41;;;;;;;1.80;1.20;;;;;;;16.51;53.83;100205.56;105285;1259;61247;-37
2024/01/29 09:23:08;;;;;;;5.60;1.20;;;;;;;16.54;53.90;100203.40;105206;1257;61260;-36
2024/01/29 09:25:35;;;;;;;2.10;1.00;;;;;;;16.56;53.97;100201.23;105337;1255;75388;-37
2024/01/29 09:28:01;;;;;;;2.40;1.20;;;;;;;16.59;53.93;100207.34;105195;1258;66234;-38
2024/01/29 09:30:29;;;;;;;2.40;1.20;;;;;;;16.62;54.01;100205.48;105201;1257;72581;-37
2024/01/29 09:32:56;;;;;;;2.40;1.30;;;;;;;16.64;53.98;100202.72;105220;1257;61263;-40
2024/01/29 09:35:37;;;;;;;1.90;1.30;;;;;;;16.67;54.01;100210.44;105246;1254;61317;-40
2024/01/29 09:38:04;;;;;;;4.30;1.20;;;;;;;16.68;53.92;100204.86;105337;1256;75515;-38
2024/01/29 09:40:33;;;;;;;2.50;1.20;;;;;;;16.70;53.82;100206.43;105293;1254;67316;-38
2024/01/29 09:42:59;;;;;;;3.40;1.10;;;;;;;16.72;53.69;100203.92;105217;1258;62391;-41
2024/01/29 09:45:26;;;;;;;1.80;1.30;;;;;;;16.73;53.69;100208.69;105022;1262;61359;-46
2024/01/29 09:47:53;;;;;;;4.50;1.60;;;;;;;16.74;53.65;100207.81;105854;1254;61254;-38
2024/01/29 09:50:20;;;;;;;3.10;1.40;;;;;;;16.75;53.72;100204.94;105547;1255;75041;-41
2024/01/29 09:52:46;;;;;;;3.70;1.20;;;;;;;16.76;53.73;100205.27;105366;1261;65117;-40
2024/01/29 09:55:13;;;;;;;6.60;1.30;;;;;;;16.77;53.70;100209.83;105100;1254;72624;-38
2024/01/29 09:57:40;;;;;;;2.70;1.40;;;;;;;16.79;53.61;100209.05;105449;1260;62143;-38
2024/01/29 10:00:07;;;;;;;2.30;1.40;;;;;;;16.79;53.56;100209.85;105193;1257;61365;-38
2024/01/29 10:02:34;;;;;;;3.00;1.40;;;;;;;16.80;53.50;100210.45;105256;1257;74291;-40
2024/01/29 10:05:01;;;;;;;2.60;1.30;;;;;;;16.80;53.45;100209.24;105139;1260;67316;-40
2024/01/29 10:07:28;;;;;;;1.80;1.20;;;;;;;16.81;53.50;100205.89;105253;1258;73779;-40
2024/01/29 10:09:55;;;;;;;3.30;1.00;;;;;;;16.82;53.48;100202.10;105339;1259;61336;-42
2024/01/29 10:12:23;;;;;;;5.70;1.40;;;;;;;16.83;53.49;100206.31;105957;1257;61113;-40
2024/01/29 10:14:50;;;;;;;4.70;1.10;;;;;;;16.83;53.50;100204.36;105433;1259;74384;-37
2024/01/29 10:17:16;;;;;;;2.20;1.10;;;;;;;16.85;53.58;100203.55;105216;1257;67046;-36
2024/01/29 10:19:44;;;;;;;2.70;1.20;;;;;;;16.88;54.28;100202.40;105636;1254;73602;-38
2024/01/29 10:22:12;;;;;;;5.10;1.50;;;;;;;16.95;54.51;100203.18;106431;1256;61312;-37
2024/01/29 10:24:41;;;;;;;1.60;1.10;;;;;;;17.00;54.70;100203.89;105628;1257;61261;-36
2024/01/29 10:27:09;;;;;;;2.10;1.30;;;;;;;17.07;54.62;100206.56;105341;1259;74460;-37
2024/01/29 10:29:48;;;;;;;4.70;1.50;;;;;;;17.14;54.58;100200.03;109202;1257;67496;-37
2024/01/29 10:32:14;;;;;;;3.40;1.50;;;;;;;17.19;54.41;100198.27;106205;1254;74281;-38
2024/01/29 10:34:41;;;;;;;1.70;1.10;;;;;;;17.24;54.26;100198.02;106883;1254;61308;-36
2024/01/29 10:37:08;;;;;;;2.70;1.30;;;;;;;17.28;54.05;100196.52;105392;1254;61353;-37
2024/01/29 10:39:36;;;;;;;5.60;1.30;;;;;;;17.32;53.89;100193.75;105158;1254;74463;-37
2024/01/29 10:42:14;;;;;;;4.00;1.20;;;;;;;17.34;53.83;100195.36;105967;1259;67207;-35
2024/01/29 10:44:41;;;;;;;4.00;1.50;;;;;;;17.35;53.60;100192.91;105380;1257;72589;-36
2024/01/29 10:47:25;;;;;;;5.40;1.60;;;;;;;17.36;53.54;100192.02;105025;1259;487912;-34
2024/01/29 10:49:53;;;;;;;2.90;1.50;;;;;;;17.36;53.16;100190.79;105340;1257;61285;-35
2024/01/29 10:52:20;;;;;;;2.60;1.30;;;;;;;17.36;53.18;100192.86;105565;1258;74593;-37
2024/01/29 10:54:47;;;;;;;8.90;1.80;;;;;;;17.35;53.18;100189.94;105232;1262;67030;-36
2024/01/29 10:57:14;;;;;;;2.90;1.60;;;;;;;17.35;53.11;100188.70;105367;1254;73496;-35
2024/01/29 10:59:43;;;;;;;6.80;1.80;;;;;;;17.33;52.94;100189.36;105126;1260;61203;-35
2024/01/29 11:02:16;;;;;;;2.90;1.50;;;;;;;17.33;52.90;100192.88;105218;1254;61237;-36
2024/01/29 11:04:43;;;;;;;4.20;1.60;;;;;;;17.31;52.83;100188.71;106231;1256;74919;-36
2024/01/29 11:07:15;;;;;;;4.00;1.40;;;;;;;17.30;52.83;100188.66;105340;1259;67201;-36
2024/01/29 11:09:53;;;;;;;2.70;1.40;;;;;;;17.28;52.78;100189.33;105224;1254;71840;-36
2024/01/29 11:12:19;;;;;;;2.50;1.50;;;;;;;17.27;52.75;100183.48;105344;1259;61390;-35
2024/01/29 11:14:59;;;;;;;2.60;1.50;;;;;;;17.25;52.72;100182.48;105602;1254;61071;-36
2024/01/29 11:17:27;;;;;;;3.40;1.40;;;;;;;17.23;52.72;100185.02;105886;1256;75799;-36